Art, Texas
Current Conditions -  °F | °C
As of 6:55 AM on Friday 24 Oct 2014 (Local Time) from KBBD Reporting Station
Clear Clear  
Wind Chill: 59°   Ceiling: Unl
Heat Index: 59°   Visibility: 10mi
Dew Point: 57°   Wind: 0mph
Humidity: 94%   Direction: NA
Pressure: 30.15"   Gusts: NA
Location:  30.74°N, 99.11°W
Report Text: KBBD 241155Z AUTO 00000KT 10SM CLR 15/14 A3015 RMK
Loading
Personal Weather Stations






























Interactive Weather Map New forecast layout! Learn more

10-Day Weather Forecast

Advertisements
Track Severe Weather on mobile